Time;durP1;ratioP1;P1;durP2;ratioP2;P2;SDS_P1;SDS_P2;PMS_P1;PMS_P2;Temp;Humidity;BMP_temperature;BMP_pressure;BME280_temperature;BME280_humidity;BME280_pressure;Samples;Min_cycle;Max_cycle;Signal;HPM_P1;HPM_P2
2022/06/01 00:00:10;;;;;;;938.47;876.35;;;;;;;15.89;65.14;100752.75;692552;28;23493;-64
2022/06/01 00:00:34;;;;;;;943.75;881.30;;;;;;;15.91;64.78;100756.09;687331;28;137764;-64
2022/06/01 00:00:56;;;;;;;942.75;880.28;;;;;;;15.91;65.23;100759.69;689236;28;21371;-64
2022/06/01 00:01:18;;;;;;;952.42;889.83;;;;;;;15.91;65.01;100754.22;688312;28;44429;-64
2022/06/01 00:01:40;;;;;;;954.63;891.75;;;;;;;15.89;65.26;100745.41;686444;28;1590;-64
2022/06/01 00:02:01;;;;;;;955.58;892.75;;;;;;;15.92;65.20;100755.06;685408;28;46297;-64
2022/06/01 00:02:25;;;;;;;957.83;895.00;;;;;;;15.91;65.14;100759.69;685981;28;45173;-63
2022/06/01 00:02:46;;;;;;;950.85;888.20;;;;;;;15.92;64.79;100760.50;686026;28;69399;-64
2022/06/01 00:03:07;;;;;;;947.97;885.53;;;;;;;15.91;65.17;100756.09;688904;28;46375;-64
2022/06/01 00:03:31;;;;;;;951.67;889.10;;;;;;;15.91;64.84;100758.81;689392;28;22559;-64
2022/06/01 00:03:52;;;;;;;943.28;880.88;;;;;;;15.91;65.05;100762.41;690741;28;69361;-63
2022/06/01 00:04:13;;;;;;;946.33;883.92;;;;;;;15.92;65.20;100757.78;692505;28;23553;-64
2022/06/01 00:04:34;;;;;;;972.15;908.65;;;;;;;15.90;65.06;100749.00;691405;28;22257;-63
2022/06/01 00:04:56;;;;;;;971.67;908.33;;;;;;;15.93;65.19;100759.47;689340;28;20847;-64
2022/06/01 00:05:19;;;;;;;952.67;890.22;;;;;;;15.91;65.33;100753.38;688633;28;45262;-64
2022/06/01 00:05:41;;;;;;;957.47;894.75;;;;;;;15.94;65.18;100759.25;687138;28;92136;-64
2022/06/01 00:06:02;;;;;;;960.88;898.05;;;;;;;15.94;65.42;100752.94;689579;28;22407;-64
2022/06/01 00:06:26;;;;;;;953.00;890.30;;;;;;;15.95;65.11;100765.53;688554;28;46226;-64
2022/06/01 00:06:47;;;;;;;952.72;890.00;;;;;;;15.95;65.13;100760.09;688705;28;67512;-64
2022/06/01 00:07:08;;;;;;;955.92;893.03;;;;;;;15.95;65.19;100760.09;691991;28;23464;-64
2022/06/01 00:07:31;;;;;;;950.85;888.25;;;;;;;15.94;65.41;100755.69;691331;28;46164;-64
2022/06/01 00:07:53;;;;;;;955.58;892.72;;;;;;;15.95;65.35;100760.09;691359;28;46820;-63
2022/06/01 00:08:14;;;;;;;972.65;909.28;;;;;;;15.95;64.97;100757.38;691664;28;45287;-64
2022/06/01 00:08:36;;;;;;;967.00;903.80;;;;;;;15.95;65.27;100760.09;690214;28;1628;-63
2022/06/01 00:08:58;;;;;;;962.75;899.60;;;;;;;15.95;65.08;100757.38;690272;28;1067;-63
2022/06/01 00:09:21;;;;;;;963.53;900.35;;;;;;;15.92;65.39;100758.63;686637;28;21552;-63
2022/06/01 00:09:42;;;;;;;958.33;895.22;;;;;;;15.90;65.28;100754.44;685830;28;8321;-63
2022/06/01 00:10:05;;;;;;;960.60;897.67;;;;;;;15.92;65.17;100755.88;685284;28;1516;-63
2022/06/01 00:10:28;;;;;;;959.40;896.45;;;;;;;15.92;65.12;100760.50;683616;28;53900;-63
2022/06/01 00:10:50;;;;;;;953.13;890.33;;;;;;;15.92;65.25;100764.06;686902;28;3681;-63
2022/06/01 00:11:12;;;;;;;965.97;902.85;;;;;;;15.91;65.30;100762.41;687356;28;46368;-63
2022/06/01 00:11:33;;;;;;;947.40;884.88;;;;;;;15.92;65.34;100760.50;688588;28;46192;-63
2022/06/01 00:11:54;;;;;;;942.50;880.17;;;;;;;15.92;65.46;100760.50;690585;28;21970;-63
2022/06/01 00:12:15;;;;;;;948.72;886.22;;;;;;;15.91;65.28;100758.81;691877;28;21507;-62
2022/06/01 00:12:36;;;;;;;950.15;887.60;;;;;;;15.91;65.35;100754.22;691875;28;23428;-63
2022/06/01 00:12:58;;;;;;;961.15;898.15;;;;;;;15.91;65.35;100764.28;692338;28;23432;-63
2022/06/01 00:13:20;;;;;;;950.40;887.83;;;;;;;15.90;65.37;100758.00;690938;28;46323;-63
2022/06/01 00:13:41;;;;;;;955.42;892.72;;;;;;;15.91;65.33;100764.28;691661;28;23363;-63
2022/06/01 00:14:03;;;;;;;961.63;898.70;;;;;;;15.89;65.39;100759.03;692086;28;44448;-63
2022/06/01 00:14:25;;;;;;;959.63;896.72;;;;;;;15.88;65.33;100762.81;691310;28;20838;-64
2022/06/01 00:14:46;;;;;;;966.10;902.90;;;;;;;15.87;65.33;100769.31;689793;28;68476;-63
2022/06/01 00:15:08;;;;;;;960.17;897.30;;;;;;;15.87;65.01;100760.31;691905;28;44444;-63
2022/06/01 00:15:30;;;;;;;962.78;899.80;;;;;;;15.83;65.21;100758.00;691190;28;45157;-64
2022/06/01 00:15:53;;;;;;;953.42;890.70;;;;;;;15.83;65.25;100751.72;691511;28;44547;-64
2022/06/01 00:16:17;;;;;;;949.83;887.40;;;;;;;15.80;65.23;100760.34;690552;28;67098;-64
2022/06/01 00:16:38;;;;;;;977.53;914.17;;;;;;;15.79;65.04;100759.47;689540;28;90759;-64
2022/06/01 00:16:59;;;;;;;963.70;900.60;;;;;;;15.79;65.08;100762.19;691836;28;21572;-63
2022/06/01 00:17:22;;;;;;;969.15;905.70;;;;;;;15.78;65.13;100767.84;691631;28;46195;-64
2022/06/01 00:17:43;;;;;;;976.33;912.83;;;;;;;15.77;65.15;100760.75;691508;28;46296;-64
2022/06/01 00:18:04;;;;;;;965.50;902.35;;;;;;;15.75;65.47;100760.06;692653;28;23521;-64
2022/06/01 00:18:26;;;;;;;984.03;919.85;;;;;;;15.76;65.21;100754.41;692357;28;23517;-65
2022/06/01 00:18:47;;;;;;;1008.00;942.80;;;;;;;15.76;65.27;100769.94;691539;28;46453;-65
2022/06/01 00:19:09;;;;;;;1001.10;935.97;;;;;;;15.74;65.19;100759.25;692519;28;21532;-63
2022/06/01 00:19:31;;;;;;;1013.97;948.42;;;;;;;15.75;65.43;100758.22;690218;28;46187;-63
2022/06/01 00:19:52;;;;;;;1009.53;944.15;;;;;;;15.76;65.18;100764.47;690166;28;67078;-63
2022/06/01 00:20:14;;;;;;;1000.30;935.38;;;;;;;15.74;65.27;100759.25;692695;28;22465;-65
2022/06/01 00:20:36;;;;;;;993.85;929.03;;;;;;;15.75;65.09;100766.38;690897;28;34461;-64
2022/06/01 00:21:00;;;;;;;1005.90;940.47;;;;;;;15.73;64.89;100745.84;689414;28;115087;-65
2022/06/01 00:21:21;;;;;;;1006.92;941.55;;;;;;;15.76;65.19;100765.31;691763;28;22407;-64
2022/06/01 00:22:19;;;;;;;1018.88;953.00;;;;;;;15.74;64.92;100756.53;685985;28;160487;-65
2022/06/01 00:22:42;;;;;;;1021.67;955.65;;;;;;;15.72;65.12;100755.06;690722;28;67589;-64
2022/06/01 00:23:06;;;;;;;1007.08;941.85;;;;;;;15.71;65.17;100759.66;691785;28;46298;-65
2022/06/01 00:23:28;;;;;;;1009.20;943.92;;;;;;;15.71;65.03;100764.28;689239;28;92300;-63
2022/06/01 00:23:50;;;;;;;1020.80;955.00;;;;;;;15.66;65.46;100762.19;689349;28;70103;-64
2022/06/01 00:24:11;;;;;;;1009.38;944.00;;;;;;;15.67;65.42;100766.56;692162;28;22801;-62
2022/06/01 00:24:32;;;;;;;999.17;934.15;;;;;;;15.66;65.40;100764.91;690736;28;21527;-65
2022/06/01 00:24:53;;;;;;;1001.08;936.00;;;;;;;15.64;65.00;100764.25;691811;28;23482;-64
2022/06/01 00:25:16;;;;;;;1000.90;935.80;;;;;;;15.63;65.29;100765.34;693592;28;1386;-64
2022/06/01 00:25:37;;;;;;;1005.72;940.50;;;;;;;15.62;65.32;100771.81;690834;28;69313;-64
2022/06/01 00:25:58;;;;;;;1015.03;949.47;;;;;;;15.61;65.43;100767.41;691778;28;46304;-63
2022/06/01 00:26:20;;;;;;;1015.97;950.42;;;;;;;15.60;65.49;100771.19;691719;28;22397;-64
2022/06/01 00:26:41;;;;;;;1010.40;945.08;;;;;;;15.57;65.30;100766.16;691059;28;45169;-64
2022/06/01 00:27:03;;;;;;;1009.33;943.85;;;;;;;15.58;65.66;100770.53;691650;28;23232;-63
2022/06/01 00:27:24;;;;;;;1015.20;949.53;;;;;;;15.55;65.44;100766.38;691003;28;46242;-63
2022/06/01 00:27:46;;;;;;;1010.45;945.00;;;;;;;15.55;65.80;100770.97;691977;28;10923;-64
2022/06/01 00:28:07;;;;;;;1007.05;941.83;;;;;;;15.53;65.56;100773.91;691806;28;46277;-63
2022/06/01 00:28:29;;;;;;;994.88;930.10;;;;;;;15.51;65.94;100770.56;692074;28;23797;-63
2022/06/01 00:28:51;;;;;;;1005.33;940.03;;;;;;;15.49;65.94;100770.75;691461;28;46362;-62
2022/06/01 00:29:12;;;;;;;1023.03;957.08;;;;;;;15.48;65.67;100769.06;691528;28;45355;-63
2022/06/01 00:29:34;;;;;;;1029.43;963.03;;;;;;;15.47;65.83;100772.88;690319;28;21527;-63
2022/06/01 00:29:57;;;;;;;989.17;924.95;;;;;;;15.47;65.65;100775.59;691847;28;23401;-64
2022/06/01 00:30:20;;;;;;;952.42;889.92;;;;;;;15.46;65.77;100771.19;690495;28;69384;-64
2022/06/01 00:30:41;;;;;;;954.63;891.88;;;;;;;15.45;66.01;100769.53;690395;28;69706;-64
2022/06/01 00:31:03;;;;;;;964.67;901.47;;;;;;;15.43;66.07;100765.31;692597;28;1538;-64
2022/06/01 00:31:24;;;;;;;953.60;890.67;;;;;;;15.42;66.00;100766.34;691113;28;44393;-63
2022/06/01 00:31:46;;;;;;;969.42;905.85;;;;;;;15.40;66.11;100771.19;692243;28;22460;-63
2022/06/01 00:32:11;;;;;;;976.70;912.90;;;;;;;15.39;66.12;100764.91;691277;28;44178;-63
2022/06/01 00:32:32;;;;;;;965.45;902.15;;;;;;;15.39;66.34;100770.34;690164;28;90655;-62
2022/06/01 00:32:53;;;;;;;976.35;912.55;;;;;;;15.38;66.37;100771.38;691875;28;22388;-63
2022/06/01 00:33:15;;;;;;;997.92;933.30;;;;;;;15.36;66.46;100767.19;691697;28;45247;-64
2022/06/01 00:33:36;;;;;;;978.88;914.97;;;;;;;15.37;66.29;100764.25;692163;28;45265;-62
2022/06/01 00:33:57;;;;;;;968.55;905.10;;;;;;;15.37;66.36;100771.59;694151;28;22403;-63
2022/06/01 00:34:19;;;;;;;973.80;910.10;;;;;;;15.36;66.52;100767.19;691231;28;22398;-64
2022/06/01 00:34:42;;;;;;;985.60;921.38;;;;;;;15.36;66.47;100761.75;686625;28;45343;-64
2022/06/01 00:35:04;;;;;;;975.03;911.33;;;;;;;15.34;66.77;100764.69;687726;28;67469;-64
2022/06/01 00:35:27;;;;;;;971.83;908.15;;;;;;;15.31;66.66;100763.22;688048;28;46296;-64
2022/06/01 00:35:48;;;;;;;973.45;909.67;;;;;;;15.33;66.86;100765.75;687091;28;69418;-64
2022/06/01 00:36:10;;;;;;;960.22;897.00;;;;;;;15.32;66.74;100761.34;689606;28;21095;-64
2022/06/01 00:36:33;;;;;;;977.40;913.58;;;;;;;15.31;66.66;100765.09;689938;28;45229;-64
2022/06/01 00:36:54;;;;;;;974.13;910.40;;;;;;;15.29;66.82;100768.03;689913;28;67500;-64
2022/06/01 00:37:16;;;;;;;987.47;923.10;;;;;;;15.30;66.65;100766.16;691850;28;23563;-64
2022/06/01 00:37:37;;;;;;;1012.03;946.72;;;;;;;15.30;66.56;100768.88;691838;28;47319;-63
2022/06/01 00:38:00;;;;;;;1021.42;955.50;;;;;;;15.31;66.65;100765.94;691768;28;23573;-64
2022/06/01 00:38:22;;;;;;;1007.50;942.10;;;;;;;15.31;66.85;100773.25;689461;28;92030;-64
2022/06/01 00:38:43;;;;;;;984.58;920.38;;;;;;;15.31;66.71;100768.66;691426;28;46298;-63
2022/06/01 00:39:04;;;;;;;974.58;910.95;;;;;;;15.32;66.58;100774.94;692430;28;22416;-63
2022/06/01 00:39:26;;;;;;;985.28;921.22;;;;;;;15.30;66.80;100766.97;691272;28;21487;-64
2022/06/01 00:39:47;;;;;;;1017.60;951.80;;;;;;;15.34;66.82;100769.28;690673;28;46168;-64
2022/06/01 00:40:11;;;;;;;1025.75;959.40;;;;;;;15.34;66.80;100772.00;692633;28;23384;-64
2022/06/01 00:40:34;;;;;;;981.97;917.90;;;;;;;15.35;66.71;100776.41;691558;28;35761;-64
2022/06/01 00:40:55;;;;;;;980.70;916.80;;;;;;;15.35;67.04;100779.97;690615;28;69371;-65
2022/06/01 00:41:18;;;;;;;993.20;928.90;;;;;;;15.35;66.77;100768.25;692130;28;23445;-64
2022/06/01 00:41:40;;;;;;;981.45;917.65;;;;;;;15.35;66.84;100777.25;689188;28;92098;-64
2022/06/01 00:42:13;;;;;;;984.80;920.90;;;;;;;15.34;66.61;100778.28;692729;28;22388;-64
2022/06/01 00:42:36;;;;;;;986.40;922.22;;;;;;;15.33;66.84;100773.91;687974;28;137669;-64
2022/06/01 00:42:58;;;;;;;997.13;932.63;;;;;;;15.32;66.99;100772.22;690158;28;69407;-64
2022/06/01 00:43:23;;;;;;;1009.50;944.50;;;;;;;15.32;67.04;100772.22;690181;28;69251;-64
2022/06/01 00:43:45;;;;;;;1002.30;937.60;;;;;;;15.31;66.78;100773.25;688946;28;115222;-64
2022/06/01 00:44:06;;;;;;;983.83;919.92;;;;;;;15.31;66.76;100778.69;691627;28;47378;-64
2022/06/01 00:44:27;;;;;;;992.83;928.63;;;;;;;15.30;66.61;100775.16;690893;28;23638;-65
2022/06/01 00:44:49;;;;;;;981.88;918.17;;;;;;;15.29;66.93;100772.63;690693;28;46328;-64
2022/06/01 00:45:13;;;;;;;991.20;927.22;;;;;;;15.29;66.87;100768.03;692603;28;21592;-64
2022/06/01 00:45:35;;;;;;;988.17;924.20;;;;;;;15.29;66.93;100775.34;689328;28;115445;-64
2022/06/01 00:45:56;;;;;;;985.83;922.00;;;;;;;15.28;67.16;100770.94;689007;28;22199;-65
2022/06/01 00:46:18;;;;;;;975.33;911.90;;;;;;;15.28;66.90;100779.97;688621;28;45291;-64
2022/06/01 00:46:39;;;;;;;983.67;919.90;;;;;;;15.26;67.14;100773.88;688587;28;46233;-65
2022/06/01 00:47:00;;;;;;;987.22;923.20;;;;;;;15.26;67.19;100771.16;688821;28;22398;-65
2022/06/01 00:47:23;;;;;;;987.90;923.80;;;;;;;15.26;66.92;100773.03;689064;28;23571;-65
2022/06/01 00:47:45;;;;;;;989.88;925.65;;;;;;;15.20;67.01;100769.25;687258;28;70050;-64
2022/06/01 00:48:07;;;;;;;993.85;929.45;;;;;;;15.25;66.90;100772.22;691382;28;46267;-64
2022/06/01 00:48:28;;;;;;;996.90;932.40;;;;;;;15.23;67.16;100776.19;692397;28;21540;-64
2022/06/01 00:48:53;;;;;;;998.15;933.55;;;;;;;15.24;67.21;100781.41;691528;28;36858;-64
2022/06/01 00:49:16;;;;;;;978.83;914.90;;;;;;;15.24;67.14;100775.97;690046;28;91853;-64
2022/06/01 00:49:39;;;;;;;994.13;929.60;;;;;;;15.23;67.36;100776.19;688405;28;92546;-64
2022/06/01 00:50:03;;;;;;;993.90;929.38;;;;;;;15.21;67.16;100776.38;689691;28;69584;-65
2022/06/01 00:50:25;;;;;;;987.30;923.10;;;;;;;15.23;67.40;100778.91;691917;28;33024;-64
2022/06/01 00:50:48;;;;;;;989.28;925.00;;;;;;;15.22;67.37;100777.22;690412;28;69306;-64
2022/06/01 00:51:09;;;;;;;983.40;919.47;;;;;;;15.21;67.46;100770.13;691169;28;47369;-65
2022/06/01 00:51:31;;;;;;;988.83;924.55;;;;;;;15.19;67.58;100783.06;688564;28;40331;-64
2022/06/01 00:51:52;;;;;;;974.35;910.53;;;;;;;15.21;67.27;100775.56;689168;28;20860;-64
2022/06/01 00:52:14;;;;;;;972.28;908.70;;;;;;;15.22;67.55;100777.22;689615;28;22392;-64
2022/06/01 00:52:40;;;;;;;977.08;913.38;;;;;;;15.21;67.22;100778.28;688053;28;69400;-64
2022/06/01 00:53:11;;;;;;;967.67;904.20;;;;;;;15.17;67.31;100772.41;685461;28;137977;-64
2022/06/01 00:53:36;;;;;;;956.65;893.45;;;;;;;15.18;67.59;100771.34;688130;28;138458;-64
2022/06/01 00:53:58;;;;;;;974.78;910.97;;;;;;;15.18;67.83;100784.97;689292;28;113557;-64
2022/06/01 00:54:19;;;;;;;975.42;911.63;;;;;;;15.17;67.87;100785.16;691657;28;22417;-65
2022/06/01 00:54:41;;;;;;;966.95;903.40;;;;;;;15.16;67.73;100780.75;690046;28;45324;-64
2022/06/01 00:55:10;;;;;;;965.22;901.85;;;;;;;15.17;67.62;100786.00;691754;28;44368;-65
2022/06/01 00:55:33;;;;;;;969.90;906.35;;;;;;;15.16;67.73;100778.91;688215;28;137801;-64
2022/06/01 00:55:57;;;;;;;971.00;907.38;;;;;;;15.17;67.52;100785.16;690267;28;68313;-64
2022/06/01 00:56:21;;;;;;;981.42;917.45;;;;;;;15.16;67.57;100780.75;689199;28;91932;-64
2022/06/01 00:56:49;;;;;;;974.85;911.03;;;;;;;15.13;67.65;100774.69;688539;28;114620;-64
2022/06/01 00:57:13;;;;;;;972.85;909.00;;;;;;;15.12;68.03;100783.94;687845;28;137512;-64
2022/06/01 00:57:34;;;;;;;982.13;918.08;;;;;;;15.12;67.58;100783.94;686992;28;91215;-64
2022/06/01 00:57:58;;;;;;;981.28;917.33;;;;;;;15.12;67.97;100786.66;689039;28;22351;-64
2022/06/01 00:58:25;;;;;;;966.25;902.80;;;;;;;15.12;67.94;100783.06;686784;28;92291;-64
2022/06/01 00:58:49;;;;;;;981.13;916.80;;;;;;;15.14;67.74;100789.16;684902;28;138253;-64
2022/06/01 00:59:13;;;;;;;985.53;920.47;;;;;;;15.14;67.54;100781.81;685916;28;84411;-64
2022/06/01 00:59:39;;;;;;;994.42;929.78;;;;;;;15.14;67.75;100784.53;688080;28;92253;-64
2022/06/01 01:00:03;;;;;;;984.08;919.83;;;;;;;15.16;67.86;100784.34;687637;28;138735;-65
2022/06/01 01:00:27;;;;;;;986.05;921.60;;;;;;;15.14;67.50;100787.25;687709;28;115209;-65
2022/06/01 01:00:50;;;;;;;982.20;917.90;;;;;;;15.13;67.98;100791.03;689830;28;67450;-64
2022/06/01 01:01:14;;;;;;;979.90;915.90;;;;;;;15.10;68.00;100785.16;689798;28;92287;-64
2022/06/01 01:01:36;;;;;;;987.88;923.55;;;;;;;15.10;68.00;100779.72;688769;28;93220;-64
2022/06/01 01:01:57;;;;;;;978.80;914.78;;;;;;;15.12;67.88;100791.22;691384;28;23418;-65
2022/06/01 01:02:19;;;;;;;986.08;921.97;;;;;;;15.10;68.02;100788.72;692129;28;22369;-64
2022/06/01 01:02:40;;;;;;;973.17;909.58;;;;;;;15.10;68.11;100790.59;687847;28;46280;-65
2022/06/01 01:03:04;;;;;;;981.97;918.10;;;;;;;15.09;68.03;100789.78;688927;28;21525;-65
2022/06/01 01:03:28;;;;;;;981.63;917.83;;;;;;;15.09;67.90;100795.22;686245;28;115030;-65
2022/06/01 01:03:52;;;;;;;1002.65;937.85;;;;;;;15.08;68.12;100792.69;685261;28;115326;-64
2022/06/01 01:04:13;;;;;;;998.15;933.45;;;;;;;15.08;67.98;100788.09;687024;28;90306;-65
2022/06/01 01:04:35;;;;;;;991.83;927.20;;;;;;;15.08;67.93;100793.53;689834;28;21490;-64
2022/06/01 01:04:56;;;;;;;976.47;912.53;;;;;;;15.09;67.86;100791.63;690791;28;46309;-64
2022/06/01 01:05:18;;;;;;;997.75;933.15;;;;;;;15.08;68.08;100787.25;691485;28;46330;-65
2022/06/01 01:05:46;;;;;;;990.28;925.83;;;;;;;15.03;67.93;100782.44;691167;28;46814;-64
2022/06/01 01:06:13;;;;;;;1001.30;936.53;;;;;;;15.05;68.03;100787.66;687428;28;161816;-63
2022/06/01 01:06:38;;;;;;;996.95;932.22;;;;;;;15.04;68.38;100789.53;686557;28;160807;-64
2022/06/01 01:07:02;;;;;;;996.28;931.47;;;;;;;15.03;68.15;100784.28;688662;28;115285;-64
2022/06/01 01:07:26;;;;;;;1000.92;936.00;;;;;;;15.03;68.06;100790.59;688997;28;113599;-64
2022/06/01 01:07:48;;;;;;;1002.30;937.42;;;;;;;15.03;68.20;100792.47;690342;28;69338;-64
2022/06/01 01:08:11;;;;;;;1004.45;939.55;;;;;;;15.02;68.15;100786.19;690523;28;69259;-64
2022/06/01 01:08:33;;;;;;;994.25;929.65;;;;;;;15.03;68.12;100779.72;690643;28;67487;-64
2022/06/01 01:08:55;;;;;;;1002.22;937.13;;;;;;;15.03;68.23;100785.16;691277;28;1604;-64
2022/06/01 01:09:18;;;;;;;1008.58;943.35;;;;;;;15.03;68.26;100790.59;689182;28;21525;-65
2022/06/01 01:09:40;;;;;;;1015.22;949.55;;;;;;;15.03;68.11;100785.16;685926;28;90741;-64
2022/06/01 01:10:01;;;;;;;989.28;924.85;;;;;;;15.04;68.33;100783.25;688892;28;22393;-65
2022/06/01 01:10:22;;;;;;;995.33;930.60;;;;;;;15.05;68.16;100784.94;688310;28;46428;-65
2022/06/01 01:10:44;;;;;;;1002.33;937.17;;;;;;;15.05;68.02;100785.78;689289;28;23514;-64
2022/06/01 01:11:06;;;;;;;1015.38;949.80;;;;;;;15.05;68.10;100787.66;691517;28;44469;-64
2022/06/01 01:11:29;;;;;;;1000.33;935.45;;;;;;;15.04;68.20;100785.97;691580;28;45051;-64
2022/06/01 01:11:53;;;;;;;1010.08;944.67;;;;;;;15.04;68.15;100783.25;690539;28;67631;-64
2022/06/01 01:12:15;;;;;;;1009.85;944.58;;;;;;;15.04;68.21;100786.81;689680;28;92315;-65
2022/06/01 01:13:16;;;;;;;1010.22;944.85;;;;;;;15.03;68.45;100787.00;687111;28;135923;-64
2022/06/01 01:13:39;;;;;;;1014.65;949.22;;;;;;;15.01;68.57;100781.78;692051;28;22375;-64
2022/06/01 01:14:01;;;;;;;1020.90;955.33;;;;;;;15.02;68.37;100785.34;690628;28;70006;-64
2022/06/01 01:14:26;;;;;;;1023.65;958.05;;;;;;;15.00;68.34;100780.13;691473;28;45609;-65
2022/06/01 01:14:48;;;;;;;1030.93;964.92;;;;;;;15.02;68.49;100779.91;687908;28;114202;-65
2022/06/01 01:15:09;;;;;;;1019.60;954.13;;;;;;;15.02;68.54;100779.91;691669;28;45248;-64
2022/06/01 01:15:35;;;;;;;1017.45;951.95;;;;;;;15.01;68.60;100783.66;691043;28;45364;-64
2022/06/01 01:15:58;;;;;;;1016.53;950.97;;;;;;;15.00;68.49;100779.25;688235;28;115896;-64
2022/06/01 01:16:20;;;;;;;1016.22;950.75;;;;;;;14.95;68.53;100771.72;690671;28;69475;-64
2022/06/01 01:16:41;;;;;;;1020.42;954.67;;;;;;;15.00;68.75;100782.84;691089;28;44356;-64
2022/06/01 01:17:05;;;;;;;1032.07;965.63;;;;;;;15.00;68.60;100779.25;691955;28;22396;-64
2022/06/01 01:17:26;;;;;;;1037.93;971.20;;;;;;;15.00;68.44;100790.16;689292;28;90339;-63
2022/06/01 01:17:48;;;;;;;1022.72;956.85;;;;;;;14.99;68.75;100783.88;691813;28;21521;-64
2022/06/01 01:18:11;;;;;;;1017.28;951.78;;;;;;;14.99;68.48;100783.06;690947;28;70251;-62
2022/06/01 01:18:36;;;;;;;1023.08;957.17;;;;;;;14.93;68.66;100774.66;688410;28;42826;-64
2022/06/01 01:18:57;;;;;;;1037.70;971.00;;;;;;;14.99;68.59;100778.44;685434;28;137782;-64
2022/06/01 01:19:24;;;;;;;1065.50;997.30;;;;;;;14.98;68.60;100787.63;688936;28;23635;-64
2022/06/01 01:19:48;;;;;;;1062.43;994.22;;;;;;;14.98;68.79;100781.34;684751;28;136379;-65
2022/06/01 01:20:09;;;;;;;1068.88;999.85;;;;;;;14.96;68.56;100779.69;686844;28;92080;-65
2022/06/01 01:20:31;;;;;;;1045.47;977.97;;;;;;;14.96;68.94;100779.69;690006;28;45254;-65
2022/06/01 01:21:02;;;;;;;1037.88;971.03;;;;;;;14.97;68.99;100780.53;691217;28;44382;-66
2022/06/01 01:21:27;;;;;;;1061.50;993.33;;;;;;;14.95;68.79;100772.56;687328;28;160696;-65
2022/06/01 01:21:51;;;;;;;1060.50;992.40;;;;;;;14.94;68.46;100778.22;689106;28;116258;-65
2022/06/01 01:22:28;;;;;;;1056.93;989.00;;;;;;;14.98;68.62;100787.63;690243;28;90098;-66
2022/06/01 01:22:53;;;;;;;1054.63;986.70;;;;;;;15.00;68.77;100784.72;687848;28;133741;-65
2022/06/01 01:23:21;;;;;;;1064.95;996.55;;;;;;;15.00;68.59;100774.69;689642;28;92286;-65
2022/06/01 01:23:49;;;;;;;1074.50;999.90;;;;;;;15.02;68.54;100782.63;687137;28;160435;-66
2022/06/01 01:24:16;;;;;;;1064.80;996.42;;;;;;;15.01;68.50;100786.38;687498;28;137829;-65
2022/06/01 01:24:45;;;;;;;1063.97;995.63;;;;;;;15.03;68.70;100787.00;686451;28;159271;-65
2022/06/01 01:25:20;;;;;;;1063.05;994.72;;;;;;;15.04;68.32;100780.53;687489;28;160245;-65
2022/06/01 01:25:42;;;;;;;1061.93;993.58;;;;;;;15.04;68.39;100788.69;688414;28;137679;-66
2022/06/01 01:26:05;;;;;;;1053.90;985.95;;;;;;;15.03;68.79;100787.88;691127;28;44269;-65
2022/06/01 01:26:28;;;;;;;1060.47;992.30;;;;;;;15.03;68.56;100785.16;691235;28;46304;-65
2022/06/01 01:26:50;;;;;;;1065.93;997.47;;;;;;;15.03;68.75;100784.28;687824;28;67271;-66
2022/06/01 01:27:12;;;;;;;1072.60;999.90;;;;;;;15.04;68.38;100788.69;687985;28;46406;-65
2022/06/01 01:27:33;;;;;;;1073.15;999.90;;;;;;;15.03;68.65;100779.72;688383;28;44206;-65
2022/06/01 01:27:56;;;;;;;1065.82;997.38;;;;;;;15.03;68.70;100793.31;689269;28;24300;-66
2022/06/01 01:28:18;;;;;;;1068.10;999.55;;;;;;;15.04;68.53;100792.25;687038;28;92830;-65
2022/06/01 01:28:40;;;;;;;1071.78;999.90;;;;;;;15.04;68.72;100789.53;690290;28;23445;-64
2022/06/01 01:29:09;;;;;;;1073.03;999.90;;;;;;;15.05;68.62;100790.38;691727;28;47176;-65
2022/06/01 01:29:32;;;;;;;1072.68;999.90;;;;;;;15.04;68.51;100791.41;687757;28;137984;-65
2022/06/01 01:29:54;;;;;;;1069.70;999.90;;;;;;;15.04;68.29;100791.41;688450;28;112092;-65
2022/06/01 01:30:29;;;;;;;1067.82;999.15;;;;;;;15.04;68.40;100786.81;691557;28;45191;-65
2022/06/01 01:30:56;;;;;;;1064.53;996.25;;;;;;;15.05;68.33;100793.94;688037;28;139157;-66
2022/06/01 01:31:20;;;;;;;1056.55;988.50;;;;;;;15.07;68.19;100794.56;687984;28;138083;-65
2022/06/01 01:31:43;;;;;;;1063.45;995.20;;;;;;;15.06;68.51;100784.75;689735;28;92731;-65
2022/06/01 01:32:06;;;;;;;1070.38;999.90;;;;;;;15.08;68.14;100793.53;691711;28;46275;-66
2022/06/01 01:32:27;;;;;;;1072.47;999.90;;;;;;;15.08;68.54;100792.69;690699;28;67482;-65
2022/06/01 01:32:48;;;;;;;1069.22;999.90;;;;;;;15.08;68.03;100792.69;691796;28;22395;-65
2022/06/01 01:33:13;;;;;;;1056.93;988.88;;;;;;;15.06;68.55;100789.31;692409;28;21521;-65
2022/06/01 01:33:34;;;;;;;1061.30;993.03;;;;;;;15.06;68.34;100792.91;688871;28;113437;-65
2022/06/01 01:33:55;;;;;;;1065.38;997.08;;;;;;;15.09;68.28;100791.63;691327;28;44378;-65
2022/06/01 01:34:17;;;;;;;1060.18;992.00;;;;;;;15.09;68.15;100788.91;692228;28;21568;-66
2022/06/01 01:34:40;;;;;;;1060.70;992.33;;;;;;;15.07;68.29;100791.84;690465;28;46101;-66
2022/06/01 01:35:01;;;;;;;1061.47;993.17;;;;;;;15.06;68.27;100790.19;691441;28;44455;-66
2022/06/01 01:35:23;;;;;;;1056.13;988.08;;;;;;;15.08;68.08;100785.38;691164;28;46227;-66
2022/06/01 01:35:47;;;;;;;1058.78;990.58;;;;;;;15.08;67.89;100784.53;692140;28;22485;-66
2022/06/01 01:36:11;;;;;;;1064.13;995.78;;;;;;;15.08;68.24;100784.53;689188;28;90346;-64
2022/06/01 01:36:38;;;;;;;1064.28;995.88;;;;;;;15.05;68.07;100780.34;689525;28;92284;-65
2022/06/01 01:37:04;;;;;;;1057.40;989.17;;;;;;;15.05;67.89;100785.78;687668;28;136554;-65
2022/06/01 01:37:27;;;;;;;1053.32;985.22;;;;;;;15.05;67.69;100787.66;687357;28;137543;-66
2022/06/01 01:37:49;;;;;;;1061.57;993.15;;;;;;;15.06;67.68;100795.63;690762;28;44281;-65
2022/06/01 01:38:15;;;;;;;1066.03;997.53;;;;;;;15.05;67.62;100783.06;691586;28;44333;-66
2022/06/01 01:38:43;;;;;;;1073.35;999.90;;;;;;;15.04;67.85;100781.38;687942;28;137960;-65
2022/06/01 01:39:09;;;;;;;1059.93;991.67;;;;;;;15.00;68.02;100777.41;687519;28;161004;-65
2022/06/01 01:39:32;;;;;;;1041.88;974.40;;;;;;;15.06;68.09;100778.44;688175;28;138121;-66
2022/06/01 01:39:53;;;;;;;1049.95;982.08;;;;;;;15.06;67.99;100782.03;688109;28;88306;-66
2022/06/01 01:40:15;;;;;;;1060.40;992.20;;;;;;;15.07;67.84;100786.41;692524;28;23421;-66
2022/06/01 01:40:38;;;;;;;1064.75;996.30;;;;;;;15.03;67.68;100777.00;690926;28;69487;-65
2022/06/01 01:41:07;;;;;;;1061.53;993.30;;;;;;;15.03;68.08;100776.13;691185;28;46194;-65
2022/06/01 01:41:32;;;;;;;1059.53;991.30;;;;;;;15.07;68.01;100786.41;687620;28;137922;-65
2022/06/01 01:41:53;;;;;;;1051.10;983.15;;;;;;;15.08;67.74;100779.94;688811;28;113559;-65
2022/06/01 01:42:15;;;;;;;1057.97;989.85;;;;;;;15.09;67.65;100783.47;691671;28;44397;-66
2022/06/01 01:42:36;;;;;;;1057.20;989.00;;;;;;;15.10;67.87;100785.16;691573;28;46274;-66
2022/06/01 01:42:59;;;;;;;1064.55;996.05;;;;;;;15.10;68.01;100786.00;691797;28;23525;-66
2022/06/01 01:43:21;;;;;;;1059.28;991.08;;;;;;;15.11;67.78;100784.13;691141;28;46502;-65